PWSweather.com
Personal Weather Stations
Station Observations
FAUSKE
Nordland, Norway, FauskeNO 8200

Nordland, NorwayFauskeNO 8200

Lat: 67.2607586, Lon: 15.4114204

Elevation: 40

Station Type: Davis Vantage PRO2

http://www.bjornli.net/weather.html

High Low Average
Temperature 70.7°F21.5°C 51.6°F10.9°C 60.6°F15.9°C
Dew Point 60.0°F15.6°C 50.3°F10.2°C 54.0°F12.2°C
Winds 25.0 mph 40.2 kmh Calm Calm 7.0 mph ESE11.3 kmh ESE
Wind Gusts 33.0 mph53.1 kmh -- 12.0 mph19.3 kmh
Humidity 97% 53% 81%
Pressure 29.66 in1004.4 mb 29.37 in994.6 mb -
Precipitation 0.00 in0.0 mm - -
Hour Temp Dew Point Humidity Winds Wind Gusts Pressure Precip Precip Rate Daily Precip Total
12:00 AM 53.4°F11.9°C 52.3°F11.3°C 96% Calm Calm -- 29.69 in1005.4 mb 0.00 in0.0 mm 0.00 in0.0 mm 0.00 in0.0 mm
12:10 AM 53.4°F11.9°C 52.3°F11.3°C 96% Calm Calm -- 29.68 in1005.1 mb 0.00 in0.0 mm 0.00 in0.0 mm 0.00 in0.0 mm
12:30 AM 52.9°F11.6°C 51.8°F11.0°C 96% Calm Calm -- 29.67 in1004.7 mb 0.00 in0.0 mm 0.00 in0.0 mm 0.00 in0.0 mm
12:40 AM 52.8°F11.6°C 51.7°F10.9°C 96% Calm Calm -- 29.67 in1004.7 mb 0.00 in0.0 mm 0.00 in0.0 mm 0.00 in0.0 mm
01:00 AM 52.9°F11.6°C 51.8°F11.0°C 96% 1.0 mph NE1.6 kmh NE 4.0 mph6.4 kmh 29.65 in1004.1 mb 0.00 in0.0 mm 0.00 in0.0 mm 0.00 in0.0 mm
01:10 AM 52.9°F11.6°C 51.8°F11.0°C 96% Calm Calm 4.0 mph6.4 kmh 29.66 in1004.4 mb 0.00 in0.0 mm 0.00 in0.0 mm 0.00 in0.0 mm
01:30 AM 52.7°F11.5°C 51.6°F10.9°C 96% Calm Calm -- 29.66 in1004.4 mb 0.00 in0.0 mm 0.00 in0.0 mm 0.00 in0.0 mm
01:40 AM 52.7°F11.5°C 51.6°F10.9°C 96% Calm Calm -- 29.66 in1004.4 mb 0.00 in0.0 mm 0.00 in0.0 mm 0.00 in0.0 mm
02:00 AM 52.7°F11.5°C 51.9°F11.1°C 97% Calm Calm -- 29.65 in1004.1 mb 0.00 in0.0 mm 0.00 in0.0 mm 0.00 in0.0 mm
02:10 AM 52.5°F11.4°C 51.7°F10.9°C 97% Calm Calm -- 29.65 in1004.1 mb 0.00 in0.0 mm 0.00 in0.0 mm 0.00 in0.0 mm
02:30 AM 52.3°F11.3°C 51.5°F10.8°C 97% Calm Calm -- 29.64 in1003.7 mb 0.00 in0.0 mm 0.00 in0.0 mm 0.00 in0.0 mm
02:40 AM 53.1°F11.7°C 52.3°F11.3°C 97% Calm Calm 6.0 mph9.7 kmh 29.64 in1003.7 mb 0.00 in0.0 mm 0.00 in0.0 mm 0.00 in0.0 mm
03:00 AM 53.3°F11.8°C 52.5°F11.4°C 97% Calm Calm -- 29.63 in1003.4 mb 0.00 in0.0 mm 0.00 in0.0 mm 0.00 in0.0 mm
03:10 AM 53.2°F11.8°C 52.4°F11.3°C 97% Calm Calm -- 29.63 in1003.4 mb 0.00 in0.0 mm 0.00 in0.0 mm 0.00 in0.0 mm
03:30 AM 53.4°F11.9°C 52.6°F11.4°C 97% Calm Calm -- 29.62 in1003.0 mb 0.00 in0.0 mm 0.00 in0.0 mm 0.00 in0.0 mm
03:40 AM 55.0°F12.8°C 54.2°F12.3°C 97% 4.0 mph SE6.4 kmh SE 10.0 mph16.1 kmh 29.62 in1003.0 mb 0.00 in0.0 mm 0.00 in0.0 mm 0.00 in0.0 mm
04:00 AM 57.5°F14.2°C 56.7°F13.7°C 97% 10.0 mph SE16.1 kmh SE 14.0 mph22.5 kmh 29.60 in1002.4 mb 0.00 in0.0 mm 0.00 in0.0 mm 0.00 in0.0 mm
04:10 AM 59.2°F15.1°C 58.4°F14.7°C 97% 5.0 mph ESE8.0 kmh ESE 16.0 mph25.7 kmh 29.60 in1002.4 mb 0.00 in0.0 mm 0.00 in0.0 mm 0.00 in0.0 mm
04:30 AM 62.0°F16.7°C 58.1°F14.5°C 87% 11.0 mph SE17.7 kmh SE 11.0 mph17.7 kmh 29.58 in1001.7 mb 0.00 in0.0 mm 0.00 in0.0 mm 0.00 in0.0 mm
04:40 AM 62.7°F17.1°C 57.5°F14.2°C 83% 9.0 mph ESE14.5 kmh ESE 20.0 mph32.2 kmh 29.58 in1001.7 mb 0.00 in0.0 mm 0.00 in0.0 mm 0.00 in0.0 mm
05:00 AM 63.5°F17.5°C 56.9°F13.8°C 79% 9.0 mph E14.5 kmh E 14.0 mph22.5 kmh 29.56 in1001.0 mb 0.00 in0.0 mm 0.00 in0.0 mm 0.00 in0.0 mm
05:10 AM 63.8°F17.7°C 56.8°F13.8°C 78% 17.0 mph SE27.4 kmh SE 17.0 mph27.4 kmh 29.55 in1000.7 mb 0.00 in0.0 mm 0.00 in0.0 mm 0.00 in0.0 mm
05:30 AM 64.8°F18.2°C 56.7°F13.7°C 75% 17.0 mph SE27.4 kmh SE 19.0 mph30.6 kmh 29.54 in1000.3 mb 0.00 in0.0 mm 0.00 in0.0 mm 0.00 in0.0 mm
05:40 AM 65.1°F18.4°C 57.0°F13.9°C 75% 22.0 mph SE35.4 kmh SE 33.0 mph53.1 kmh 29.52 in999.7 mb 0.00 in0.0 mm 0.00 in0.0 mm 0.00 in0.0 mm
06:00 AM 65.1°F18.4°C 57.0°F13.9°C 75% 15.0 mph SE24.1 kmh SE 15.0 mph24.1 kmh 29.52 in999.7 mb 0.00 in0.0 mm 0.00 in0.0 mm 0.00 in0.0 mm
06:09 AM 64.9°F18.3°C 57.2°F14.0°C 76% 25.0 mph ESE40.2 kmh ESE 28.0 mph45.1 kmh 29.52 in999.7 mb 0.00 in0.0 mm 0.00 in0.0 mm 0.00 in0.0 mm
06:30 AM 65.3°F18.5°C 57.2°F14.0°C 75% 12.0 mph SE19.3 kmh SE 12.0 mph19.3 kmh 29.52 in999.7 mb 0.00 in0.0 mm 0.00 in0.0 mm 0.00 in0.0 mm
06:40 AM 65.4°F18.6°C 56.9°F13.8°C 74% 21.0 mph SE33.8 kmh SE 28.0 mph45.1 kmh 29.52 in999.7 mb 0.00 in0.0 mm 0.00 in0.0 mm 0.00 in0.0 mm
07:00 AM 65.8°F18.8°C 56.5°F13.6°C 72% 16.0 mph S25.7 kmh S 18.0 mph29.0 kmh 29.51 in999.3 mb 0.00 in0.0 mm 0.00 in0.0 mm 0.00 in0.0 mm
07:10 AM 65.9°F18.8°C 56.6°F13.7°C 72% 19.0 mph SSE30.6 kmh SSE 26.0 mph41.8 kmh 29.51 in999.3 mb 0.00 in0.0 mm 0.00 in0.0 mm 0.00 in0.0 mm
07:30 AM 66.1°F18.9°C 56.8°F13.8°C 72% 15.0 mph SE24.1 kmh SE 27.0 mph43.5 kmh 29.52 in999.7 mb 0.00 in0.0 mm 0.00 in0.0 mm 0.00 in0.0 mm
07:40 AM 66.9°F19.4°C 56.8°F13.8°C 70% 12.0 mph S19.3 kmh S 21.0 mph33.8 kmh 29.52 in999.7 mb 0.00 in0.0 mm 0.00 in0.0 mm 0.00 in0.0 mm
08:00 AM 68.0°F20.0°C 56.2°F13.4°C 66% 14.0 mph SE22.5 kmh SE 19.0 mph30.6 kmh 29.51 in999.3 mb 0.00 in0.0 mm 0.00 in0.0 mm 0.00 in0.0 mm
08:09 AM 67.1°F19.5°C 55.4°F13.0°C 66% 15.0 mph SE24.1 kmh SE 26.0 mph41.8 kmh 29.52 in999.7 mb 0.00 in0.0 mm 0.00 in0.0 mm 0.00 in0.0 mm
08:30 AM 68.2°F20.1°C 56.0°F13.3°C 65% 15.0 mph SE24.1 kmh SE 20.0 mph32.2 kmh 29.50 in999.0 mb 0.00 in0.0 mm 0.00 in0.0 mm 0.00 in0.0 mm
08:40 AM 68.3°F20.2°C 55.7°F13.2°C 64% 22.0 mph SE35.4 kmh SE 28.0 mph45.1 kmh 29.50 in999.0 mb 0.00 in0.0 mm 0.00 in0.0 mm 0.00 in0.0 mm
09:00 AM 68.9°F20.5°C 55.4°F13.0°C 62% 13.0 mph SE20.9 kmh SE 13.0 mph20.9 kmh 29.50 in999.0 mb 0.00 in0.0 mm 0.00 in0.0 mm 0.00 in0.0 mm
09:10 AM 68.5°F20.3°C 55.0°F12.8°C 62% 12.0 mph S19.3 kmh S 26.0 mph41.8 kmh 29.51 in999.3 mb 0.00 in0.0 mm 0.00 in0.0 mm 0.00 in0.0 mm
09:30 AM 67.8°F19.9°C 54.3°F12.4°C 62% 10.0 mph SSE16.1 kmh SSE 10.0 mph16.1 kmh 29.52 in999.7 mb 0.00 in0.0 mm 0.00 in0.0 mm 0.00 in0.0 mm
09:40 AM 67.6°F19.8°C 54.6°F12.6°C 63% 9.0 mph S14.5 kmh S 21.0 mph33.8 kmh 29.53 in1000.0 mb 0.00 in0.0 mm 0.00 in0.0 mm 0.00 in0.0 mm
10:00 AM 68.7°F20.4°C 54.3°F12.4°C 60% 15.0 mph SE24.1 kmh SE 19.0 mph30.6 kmh 29.52 in999.7 mb 0.00 in0.0 mm 0.00 in0.0 mm 0.00 in0.0 mm
10:10 AM 69.0°F20.6°C 54.1°F12.3°C 59% 13.0 mph SE20.9 kmh SE 19.0 mph30.6 kmh 29.52 in999.7 mb 0.00 in0.0 mm 0.00 in0.0 mm 0.00 in0.0 mm
10:30 AM 68.2°F20.1°C 54.7°F12.6°C 62% 7.0 mph SE11.3 kmh SE 7.0 mph11.3 kmh 29.51 in999.3 mb 0.00 in0.0 mm 0.00 in0.0 mm 0.00 in0.0 mm
10:40 AM 68.2°F20.1°C 54.3°F12.4°C 61% 15.0 mph SE24.1 kmh SE 25.0 mph40.2 kmh 29.51 in999.3 mb 0.00 in0.0 mm 0.00 in0.0 mm 0.00 in0.0 mm
11:00 AM 68.7°F20.4°C 53.8°F12.1°C 59% 12.0 mph SSE19.3 kmh SSE 12.0 mph19.3 kmh 29.50 in999.0 mb 0.00 in0.0 mm 0.00 in0.0 mm 0.00 in0.0 mm
11:09 AM 70.5°F21.4°C 55.0°F12.8°C 58% 18.0 mph SE29.0 kmh SE 26.0 mph41.8 kmh 29.49 in998.6 mb 0.00 in0.0 mm 0.00 in0.0 mm 0.00 in0.0 mm
11:30 AM 70.0°F21.1°C 53.1°F11.7°C 55% 13.0 mph SE20.9 kmh SE 18.0 mph29.0 kmh 29.49 in998.6 mb 0.00 in0.0 mm 0.00 in0.0 mm 0.00 in0.0 mm
11:40 AM 70.0°F21.1°C 52.6°F11.4°C 54% 11.0 mph SE17.7 kmh SE 23.0 mph37.0 kmh 29.49 in998.6 mb 0.00 in0.0 mm 0.00 in0.0 mm 0.00 in0.0 mm
12:00 PM 70.7°F21.5°C 52.8°F11.6°C 53% 5.0 mph SSE8.0 kmh SSE 12.0 mph19.3 kmh 29.49 in998.6 mb 0.00 in0.0 mm 0.00 in0.0 mm 0.00 in0.0 mm
12:10 PM 69.7°F20.9°C 53.8°F12.1°C 57% 10.0 mph SE16.1 kmh SE 16.0 mph25.7 kmh 29.50 in999.0 mb 0.00 in0.0 mm 0.00 in0.0 mm 0.00 in0.0 mm
12:30 PM 69.6°F20.9°C 55.1°F12.8°C 60% 13.0 mph SE20.9 kmh SE 15.0 mph24.1 kmh 29.49 in998.6 mb 0.00 in0.0 mm 0.00 in0.0 mm 0.00 in0.0 mm
12:40 PM 70.2°F21.2°C 56.6°F13.7°C 62% 15.0 mph SE24.1 kmh SE 21.0 mph33.8 kmh 29.49 in998.6 mb 0.00 in0.0 mm 0.00 in0.0 mm 0.00 in0.0 mm
01:00 PM 67.8°F19.9°C 56.0°F13.3°C 66% 7.0 mph SE11.3 kmh SE 12.0 mph19.3 kmh 29.48 in998.3 mb 0.00 in0.0 mm 0.00 in0.0 mm 0.00 in0.0 mm
01:10 PM 67.5°F19.7°C 56.2°F13.4°C 67% 7.0 mph SE11.3 kmh SE 23.0 mph37.0 kmh 29.47 in998.0 mb 0.00 in0.0 mm 0.00 in0.0 mm 0.00 in0.0 mm
01:30 PM 67.4°F19.7°C 56.5°F13.6°C 68% 11.0 mph S17.7 kmh S 17.0 mph27.4 kmh 29.46 in997.6 mb 0.00 in0.0 mm 0.00 in0.0 mm 0.00 in0.0 mm
01:40 PM 67.3°F19.6°C 56.4°F13.6°C 68% 10.0 mph SE16.1 kmh SE 23.0 mph37.0 kmh 29.46 in997.6 mb 0.00 in0.0 mm 0.00 in0.0 mm 0.00 in0.0 mm
02:00 PM 67.5°F19.7°C 57.4°F14.1°C 70% 11.0 mph E17.7 kmh E 15.0 mph24.1 kmh 29.44 in997.0 mb 0.00 in0.0 mm 0.00 in0.0 mm 0.00 in0.0 mm
02:09 PM 68.2°F20.1°C 57.7°F14.3°C 69% 11.0 mph SE17.7 kmh SE 25.0 mph40.2 kmh 29.43 in996.6 mb 0.00 in0.0 mm 0.00 in0.0 mm 0.00 in0.0 mm
02:30 PM 67.5°F19.7°C 57.8°F14.3°C 71% 18.0 mph SE29.0 kmh SE 18.0 mph29.0 kmh 29.41 in995.9 mb 0.00 in0.0 mm 0.00 in0.0 mm 0.00 in0.0 mm
02:40 PM 67.9°F19.9°C 57.8°F14.3°C 70% 13.0 mph SE20.9 kmh SE 21.0 mph33.8 kmh 29.40 in995.6 mb 0.00 in0.0 mm 0.00 in0.0 mm 0.00 in0.0 mm
03:00 PM 68.4°F20.2°C 58.2°F14.6°C 70% 10.0 mph SE16.1 kmh SE 11.0 mph17.7 kmh 29.38 in994.9 mb 0.00 in0.0 mm 0.00 in0.0 mm 0.00 in0.0 mm
03:10 PM 68.9°F20.5°C 58.7°F14.8°C 70% 15.0 mph SE24.1 kmh SE 23.0 mph37.0 kmh 29.38 in994.9 mb 0.00 in0.0 mm 0.00 in0.0 mm 0.00 in0.0 mm
03:30 PM 68.0°F20.0°C 59.4°F15.2°C 74% 11.0 mph SE17.7 kmh SE 15.0 mph24.1 kmh 29.38 in994.9 mb 0.00 in0.0 mm 0.00 in0.0 mm 0.00 in0.0 mm
03:40 PM 67.2°F19.6°C 59.8°F15.4°C 77% 12.0 mph SE19.3 kmh SE 24.0 mph38.6 kmh 29.38 in994.9 mb 0.00 in0.0 mm 0.00 in0.0 mm 0.00 in0.0 mm
04:00 PM 68.6°F20.3°C 60.0°F15.6°C 74% 19.0 mph SE30.6 kmh SE 19.0 mph30.6 kmh 29.37 in994.6 mb 0.00 in0.0 mm 0.00 in0.0 mm 0.00 in0.0 mm
04:10 PM 69.3°F20.7°C 59.5°F15.3°C 71% 12.0 mph SE19.3 kmh SE 21.0 mph33.8 kmh 29.37 in994.6 mb 0.00 in0.0 mm 0.00 in0.0 mm 0.00 in0.0 mm
04:30 PM 60.1°F15.6°C 53.9°F12.2°C 80% Calm Calm 3.0 mph4.8 kmh 29.44 in997.0 mb 0.05 in1.3 mm 0.15 in3.8 mm 0.05 in1.3 mm
04:40 PM 56.4°F13.6°C 52.0°F11.1°C 85% 4.0 mph SW6.4 kmh SW 18.0 mph29.0 kmh 29.45 in997.3 mb 0.10 in2.5 mm 0.30 in7.6 mm 0.10 in2.5 mm
05:00 PM 54.1°F12.3°C 51.2°F10.7°C 90% Calm Calm -- 29.49 in998.6 mb 0.17 in4.3 mm 0.11 in2.8 mm 0.17 in4.3 mm
05:10 PM 53.8°F12.1°C 51.2°F10.7°C 91% 4.0 mph S6.4 kmh S 17.0 mph27.4 kmh 29.50 in999.0 mb 0.24 in6.1 mm 0.42 in10.7 mm 0.24 in6.1 mm
05:30 PM 52.7°F11.5°C 50.5°F10.3°C 92% 1.0 mph WSW1.6 kmh WSW 5.0 mph8.0 kmh 29.51 in999.3 mb 0.27 in6.9 mm 0.09 in2.3 mm 0.27 in6.9 mm
05:40 PM 52.7°F11.5°C 50.7°F10.4°C 93% 2.0 mph W3.2 kmh W 11.0 mph17.7 kmh 29.52 in999.7 mb 0.27 in6.9 mm 0.00 in0.0 mm 0.27 in6.9 mm
06:00 PM 52.7°F11.5°C 50.7°F10.4°C 93% 8.0 mph NW12.9 kmh NW 8.0 mph12.9 kmh 29.54 in1000.3 mb 0.17 in4.3 mm 0.00 in0.0 mm 0.27 in6.9 mm
06:10 PM 52.8°F11.6°C 50.8°F10.4°C 93% Calm Calm 8.0 mph12.9 kmh 29.54 in1000.3 mb 0.17 in4.3 mm 0.00 in0.0 mm 0.27 in6.9 mm
06:30 PM 52.7°F11.5°C 50.7°F10.4°C 93% Calm Calm 1.0 mph1.6 kmh 29.55 in1000.7 mb 0.03 in0.8 mm 0.00 in0.0 mm 0.27 in6.9 mm
06:39 PM 52.7°F11.5°C 50.7°F10.4°C 93% Calm Calm 1.0 mph1.6 kmh 29.55 in1000.7 mb 0.04 in1.0 mm 0.07 in1.8 mm 0.28 in7.1 mm
07:00 PM 52.6°F11.4°C 50.9°F10.5°C 94% Calm Calm -- 29.55 in1000.7 mb 0.02 in0.5 mm 0.00 in0.0 mm 0.28 in7.1 mm
07:10 PM 52.5°F11.4°C 50.8°F10.4°C 94% Calm Calm -- 29.56 in1001.0 mb 0.02 in0.5 mm 0.00 in0.0 mm 0.28 in7.1 mm
07:30 PM 52.5°F11.4°C 50.8°F10.4°C 94% Calm Calm -- 29.55 in1000.7 mb 0.02 in0.5 mm 0.00 in0.0 mm 0.28 in7.1 mm
07:40 PM 52.4°F11.3°C 50.7°F10.4°C 94% Calm Calm -- 29.55 in1000.7 mb 0.02 in0.5 mm 0.00 in0.0 mm 0.28 in7.1 mm
08:00 PM 52.0°F11.1°C 50.3°F10.2°C 94% Calm Calm -- 29.56 in1001.0 mb 0.01 in0.3 mm 0.00 in0.0 mm 0.28 in7.1 mm
08:10 PM 52.0°F11.1°C 50.6°F10.3°C 95% Calm Calm -- 29.56 in1001.0 mb 0.01 in0.3 mm 0.00 in0.0 mm 0.28 in7.1 mm
08:30 PM 52.0°F11.1°C 50.6°F10.3°C 95% Calm Calm -- 29.57 in1001.4 mb 0.00 in0.0 mm 0.00 in0.0 mm 0.28 in7.1 mm
08:40 PM 52.0°F11.1°C 50.6°F10.3°C 95% Calm Calm -- 29.57 in1001.4 mb 0.00 in0.0 mm 0.00 in0.0 mm 0.28 in7.1 mm
09:00 PM 52.0°F11.1°C 50.6°F10.3°C 95% Calm Calm -- 29.58 in1001.7 mb 0.01 in0.3 mm 0.02 in0.5 mm 0.29 in7.4 mm
09:09 PM 52.1°F11.2°C 50.7°F10.4°C 95% Calm Calm -- 29.58 in1001.7 mb 0.01 in0.3 mm 0.00 in0.0 mm 0.29 in7.4 mm
09:30 PM 51.8°F11.0°C 50.4°F10.2°C 95% Calm Calm -- 29.57 in1001.4 mb 0.01 in0.3 mm 0.00 in0.0 mm 0.29 in7.4 mm
09:40 PM 51.7°F10.9°C 50.3°F10.2°C 95% Calm Calm -- 29.57 in1001.4 mb 0.01 in0.3 mm 0.00 in0.0 mm 0.29 in7.4 mm
10:00 PM 51.8°F11.0°C 50.4°F10.2°C 95% Calm Calm -- 29.58 in1001.7 mb 0.00 in0.0 mm 0.00 in0.0 mm 0.29 in7.4 mm
10:09 PM 51.7°F10.9°C 50.3°F10.2°C 95% Calm Calm -- 29.58 in1001.7 mb 0.01 in0.3 mm 0.07 in1.8 mm 0.30 in7.6 mm
10:30 PM 51.7°F10.9°C 50.6°F10.3°C 96% Calm Calm -- 29.57 in1001.4 mb 0.01 in0.3 mm 0.00 in0.0 mm 0.30 in7.6 mm
10:40 PM 51.6°F10.9°C 50.5°F10.3°C 96% Calm Calm -- 29.58 in1001.7 mb 0.01 in0.3 mm 0.00 in0.0 mm 0.30 in7.6 mm
11:00 PM 52.3°F11.3°C 51.2°F10.7°C 96% Calm Calm -- 29.58 in1001.7 mb 0.01 in0.3 mm 0.00 in0.0 mm 0.30 in7.6 mm
11:10 PM 52.3°F11.3°C 51.2°F10.7°C 96% Calm Calm 2.0 mph3.2 kmh 29.58 in1001.7 mb 0.01 in0.3 mm 0.00 in0.0 mm 0.30 in7.6 mm
11:30 PM 52.3°F11.3°C 51.2°F10.7°C 96% Calm Calm -- 29.57 in1001.4 mb 0.00 in0.0 mm 0.00 in0.0 mm 0.30 in7.6 mm
11:40 PM 52.2°F11.2°C 51.1°F10.6°C 96% Calm Calm -- 29.57 in1001.4 mb 0.00 in0.0 mm 0.00 in0.0 mm 0.30 in7.6 mm